MKJS 250300Z 12004KT 9999 FEW024 26/23 Q1013
MKJP 250300Z 04003KT 9999 FEW022 26/21 Q1014
MWCR 250300Z VRB02KT 9999 FEW018 BKN040 27/24 Q1014
MWCB 250000Z 29002KT 9999 FEW020 27/24 Q1013